Time;durP1;ratioP1;P1;durP2;ratioP2;P2;SDS_P1;SDS_P2;PMS_P1;PMS_P2;Temp;Humidity;BMP_temperature;BMP_pressure;BME280_temperature;BME280_humidity;BME280_pressure;Samples;Min_cycle;Max_cycle;Signal;HPM_P1;HPM_P2
2021/05/25 00:00:31;;;;;;;;;;;;;;;;;;4220973;33;20017;-82
2021/05/25 00:03:06;;;;;;;;;;;;;;;;;;4241484;33;20238;-85
2021/05/25 00:05:37;;;;;;;;;;;;;;;;;;4238063;33;19978;-85
2021/05/25 00:08:11;;;;;;;;;;;;;;;;;;4226028;33;19961;-84
2021/05/25 00:10:57;;;;;;;;;;;;;;;;;;4440446;31;20294;-80
2021/05/25 00:13:34;;;;;;;;;;;;;;;;;;4434381;32;19995;-82
2021/05/25 00:16:05;;;;;;;;;;;;;;;;;;4434894;32;19960;-82
2021/05/25 00:18:36;;;;;;;;;;;;;;;;;;4440061;32;20049;-83
2021/05/25 00:21:09;;;;;;;;;;;;;;;;;;4438289;32;20052;-83
2021/05/25 00:23:40;;;;;;;;;;;;;;;;;;4408699;32;19976;-85
2021/05/25 00:26:10;;;;;;;;;;;;;;;;;;4432917;32;19957;-84
2021/05/25 00:28:42;;;;;;;;;;;;;;;;;;4438187;32;19968;-84
2021/05/25 00:31:12;;;;;;;;;;;;;;;;;;4428908;32;20420;-86
2021/05/25 00:33:44;;;;;;;;;;;;;;;;;;4422819;32;20403;-84
2021/05/25 00:36:14;;;;;;;;;;;;;;;;;;4426691;32;20553;-83
2021/05/25 00:38:46;;;;;;;;;;;;;;;;;;4419592;32;19968;-84
2021/05/25 00:41:16;;;;;;;;;;;;;;;;;;4438047;32;19991;-87
2021/05/25 00:43:48;;;;;;;;;;;;;;;;;;4437502;32;20505;-83
2021/05/25 00:46:18;;;;;;;;;;;;;;;;;;4438741;32;19958;-85
2021/05/25 00:48:49;;;;;;;;;;;;;;;;;;4440296;32;20422;-87
2021/05/25 00:51:19;;;;;;;;;;;;;;;;;;4436683;32;20337;-84
2021/05/25 00:53:51;;;;;;;;;;;;;;;;;;4427552;32;19983;-85
2021/05/25 00:56:21;;;;;;;;;;;;;;;;;;4411844;32;20018;-84
2021/05/25 00:58:53;;;;;;;;;;;;;;;;;;4425560;32;20001;-83
2021/05/25 01:01:23;;;;;;;;;;;;;;;;;;4416274;32;20276;-84
2021/05/25 01:03:54;;;;;;;;;;;;;;;;;;4437392;32;20030;-84
2021/05/25 01:06:25;;;;;;;;;;;;;;;;;;4425524;32;20007;-85
2021/05/25 01:08:59;;;;;;;;;;;;;;;;;;4435840;32;19954;-84
2021/05/25 01:11:30;;;;;;;;;;;;;;;;;;4426550;32;20355;-83
2021/05/25 01:14:02;;;;;;;;;;;;;;;;;;4413984;32;20228;-84
2021/05/25 01:16:38;;;;;;;;;;;;;;;;;;4437039;32;20005;-85
2021/05/25 01:19:14;;;;;;;;;;;;;;;;;;4419527;32;20000;-84
2021/05/25 01:21:45;;;;;;;;;;;;;;;;;;4417939;32;20014;-83
2021/05/25 01:24:16;;;;;;;;;;;;;;;;;;4425177;32;20331;-85
2021/05/25 01:26:46;;;;;;;;;;;;;;;;;;4416247;32;20407;-85
2021/05/25 01:29:17;;;;;;;;;;;;;;;;;;4425504;32;20767;-84
2021/05/25 01:31:47;;;;;;;;;;;;;;;;;;4414508;32;19997;-86
2021/05/25 01:34:18;;;;;;;;;;;;;;;;;;4411185;32;19989;-85
2021/05/25 01:36:49;;;;;;;;;;;;;;;;;;4408916;32;19999;-84
2021/05/25 01:39:20;;;;;;;;;;;;;;;;;;4424843;32;20671;-83
2021/05/25 01:41:50;;;;;;;;;;;;;;;;;;4416588;32;20017;-84
2021/05/25 01:44:21;;;;;;;;;;;;;;;;;;4415613;32;20276;-84
2021/05/25 01:46:52;;;;;;;;;;;;;;;;;;4417412;32;19965;-83
2021/05/25 01:49:23;;;;;;;;;;;;;;;;;;4425363;32;19946;-84
2021/05/25 01:51:54;;;;;;;;;;;;;;;;;;4411176;32;20013;-85
2021/05/25 01:54:24;;;;;;;;;;;;;;;;;;4415578;32;20794;-84
2021/05/25 01:56:55;;;;;;;;;;;;;;;;;;4407456;32;20099;-86
2021/05/25 01:59:27;;;;;;;;;;;;;;;;;;4420211;32;20436;-84
2021/05/25 02:01:57;;;;;;;;;;;;;;;;;;4423702;32;22009;-83
2021/05/25 02:04:28;;;;;;;;;;;;;;;;;;4413015;32;19964;-84
2021/05/25 02:06:58;;;;;;;;;;;;;;;;;;4418684;32;20013;-85
2021/05/25 02:09:30;;;;;;;;;;;;;;;;;;4401788;32;20011;-83
2021/05/25 02:12:01;;;;;;;;;;;;;;;;;;4414867;32;19994;-84
2021/05/25 02:14:32;;;;;;;;;;;;;;;;;;4428944;32;19957;-85
2021/05/25 02:17:03;;;;;;;;;;;;;;;;;;4416007;32;20452;-85
2021/05/25 02:19:34;;;;;;;;;;;;;;;;;;4416435;32;20105;-84
2021/05/25 02:22:02;;;;;;;;;;;;;;;;;;4429327;32;19967;-83
2021/05/25 02:24:33;;;;;;;;;;;;;;;;;;4430447;32;19954;-83
2021/05/25 02:27:03;;;;;;;;;;;;;;;;;;4426259;32;20041;-85
2021/05/25 02:29:32;;;;;;;;;;;;;;;;;;4412777;32;20028;-84
2021/05/25 02:32:00;;;;;;;;;;;;;;;;;;4425037;32;20018;-85
2021/05/25 02:34:30;;;;;;;;;;;;;;;;;;4410807;32;19972;-83
2021/05/25 02:37:01;;;;;;;;;;;;;;;;;;4430368;32;19964;-83
2021/05/25 02:39:31;;;;;;;;;;;;;;;;;;4426804;32;19958;-84
2021/05/25 02:42:04;;;;;;;;;;;;;;;;;;4418982;32;19998;-85
2021/05/25 02:44:34;;;;;;;;;;;;;;;;;;4425848;32;19961;-82
2021/05/25 02:47:05;;;;;;;;;;;;;;;;;;4399157;32;19969;-84
2021/05/25 02:49:35;;;;;;;;;;;;;;;;;;4409305;32;19962;-85
2021/05/25 02:52:06;;;;;;;;;;;;;;;;;;4417530;32;20382;-86
2021/05/25 02:54:36;;;;;;;;;;;;;;;;;;4425847;32;20318;-84
2021/05/25 02:57:07;;;;;;;;;;;;;;;;;;4417307;32;20259;-85
2021/05/25 02:59:37;;;;;;;;;;;;;;;;;;4414664;32;20399;-85
2021/05/25 03:02:08;;;;;;;;;;;;;;;;;;4427567;32;20229;-85
2021/05/25 03:04:39;;;;;;;;;;;;;;;;;;4429052;32;20339;-83
2021/05/25 03:07:10;;;;;;;;;;;;;;;;;;4417328;32;20454;-84
2021/05/25 03:09:40;;;;;;;;;;;;;;;;;;4415527;32;20009;-86
2021/05/25 03:12:15;;;;;;;;;;;;;;;;;;4485262;26;19954;-92
2021/05/25 03:14:56;;;;;;;;;;;;;;;;;;4402405;32;19954;-94
2021/05/25 03:17:29;;;;;;;;;;;;;;;;;;4401458;32;19979;-94
2021/05/25 03:19:58;;;;;;;;;;;;;;;;;;4405054;32;19986;-91
2021/05/25 03:22:36;;;;;;;;;;;;;;;;;;4402238;32;19989;-94
2021/05/25 03:25:08;;;;;;;;;;;;;;;;;;4398491;32;19972;-94
2021/05/25 03:27:52;;;;;;;;;;;;;;;;;;4400447;32;19989;-93
2021/05/25 03:30:39;;;;;;;;;;;;;;;;;;4390171;32;19984;-93
2021/05/25 03:33:10;;;;;;;;;;;;;;;;;;4399540;32;20293;-93
2021/05/25 03:35:54;;;;;;;;;;;;;;;;;;4398654;32;20352;-92
2021/05/25 03:41:54;;;;;;;;;;;;;;;;;;4407717;32;19954;-92
2021/05/25 03:44:27;;;;;;;;;;;;;;;;;;4405065;32;19988;-93
2021/05/25 03:47:10;;;;;;;;;;;;;;;;;;4388717;32;19958;-93
2021/05/25 03:50:08;;;;;;;;;;;;;;;;;;4387908;32;19955;-94
2021/05/25 03:52:37;;;;;;;;;;;;;;;;;;4400035;32;19981;-92
2021/05/25 03:55:18;;;;;;;;;;;;;;;;;;4386801;32;19946;-92
2021/05/25 04:00:38;;;;;;;;;;;;;;;;;;4406393;32;19957;-92
2021/05/25 04:03:29;;;;;;;;;;;;;;;;;;4387855;32;20245;-92
2021/05/25 04:06:06;;;;;;;;;;;;;;;;;;4386241;32;19958;-92
2021/05/25 04:08:56;;;;;;;;;;;;;;;;;;4386749;32;19987;-93
2021/05/25 04:11:35;;;;;;;;;;;;;;;;;;4388661;32;20022;-93
2021/05/25 04:14:11;;;;;;;;;;;;;;;;;;4387262;32;19980;-92
2021/05/25 04:16:39;;;;;;;;;;;;;;;;;;4400024;32;20018;-91
2021/05/25 04:19:16;;;;;;;;;;;;;;;;;;4395973;32;20520;-92
2021/05/25 04:21:48;;;;;;;;;;;;;;;;;;4394387;32;20003;-93
2021/05/25 04:24:26;;;;;;;;;;;;;;;;;;4388123;32;19958;-92
2021/05/25 04:26:59;;;;;;;;;;;;;;;;;;4390948;32;20611;-93
2021/05/25 04:29:34;;;;;;;;;;;;;;;;;;4394025;32;20074;-93
2021/05/25 04:32:08;;;;;;;;;;;;;;;;;;4400073;32;19966;-92
2021/05/25 04:34:45;;;;;;;;;;;;;;;;;;4401351;32;19998;-93
2021/05/25 04:37:24;;;;;;;;;;;;;;;;;;4391329;32;19973;-92
2021/05/25 04:39:55;;;;;;;;;;;;;;;;;;4386314;32;19997;-92
2021/05/25 04:42:30;;;;;;;;;;;;;;;;;;4399898;32;19982;-93
2021/05/25 04:45:15;;;;;;;;;;;;;;;;;;4385783;32;20005;-93
2021/05/25 04:47:50;;;;;;;;;;;;;;;;;;4395141;32;19978;-93
2021/05/25 04:50:28;;;;;;;;;;;;;;;;;;4384776;32;20009;-93
2021/05/25 04:52:57;;;;;;;;;;;;;;;;;;4388887;32;20308;-91
2021/05/25 04:55:31;;;;;;;;;;;;;;;;;;4387176;32;19962;-92
2021/05/25 04:58:00;;;;;;;;;;;;;;;;;;4399532;32;20001;-94
2021/05/25 05:00:43;;;;;;;;;;;;;;;;;;4401955;32;20360;-94
2021/05/25 05:03:22;;;;;;;;;;;;;;;;;;4401461;32;19985;-93
2021/05/25 05:05:55;;;;;;;;;;;;;;;;;;4401078;32;20039;-93
2021/05/25 05:08:34;;;;;;;;;;;;;;;;;;4393613;32;20724;-92
2021/05/25 05:11:30;;;;;;;;;;;;;;;;;;4402287;32;19958;-91
2021/05/25 05:14:01;;;;;;;;;;;;;;;;;;4402020;32;19995;-92
2021/05/25 05:16:36;;;;;;;;;;;;;;;;;;4390217;32;19958;-93
2021/05/25 05:19:09;;;;;;;;;;;;;;;;;;4399555;32;19962;-93
2021/05/25 05:21:43;;;;;;;;;;;;;;;;;;4398202;32;20030;-92
2021/05/25 05:24:14;;;;;;;;;;;;;;;;;;4394938;32;20042;-92
2021/05/25 05:26:49;;;;;;;;;;;;;;;;;;4403787;32;20000;-94
2021/05/25 05:29:19;;;;;;;;;;;;;;;;;;4390912;32;20130;-91
2021/05/25 05:31:49;;;;;;;;;;;;;;;;;;4392970;32;19958;-93
2021/05/25 05:34:23;;;;;;;;;;;;;;;;;;4389974;32;20041;-92
2021/05/25 05:37:00;;;;;;;;;;;;;;;;;;4383291;32;19989;-91
2021/05/25 05:39:34;;;;;;;;;;;;;;;;;;4388819;32;20432;-92
2021/05/25 05:42:08;;;;;;;;;;;;;;;;;;4390171;32;19962;-93
2021/05/25 05:44:42;;;;;;;;;;;;;;;;;;4392767;32;19983;-93
2021/05/25 05:47:13;;;;;;;;;;;;;;;;;;4401133;32;20278;-92
2021/05/25 05:49:45;;;;;;;;;;;;;;;;;;4411597;32;20685;-91
2021/05/25 05:52:22;;;;;;;;;;;;;;;;;;4407931;32;20399;-92
2021/05/25 05:55:05;;;;;;;;;;;;;;;;;;4389331;32;19994;-92
2021/05/25 05:57:48;;;;;;;;;;;;;;;;;;4383917;32;19984;-91
2021/05/25 06:00:30;;;;;;;;;;;;;;;;;;4390158;32;19993;-95
2021/05/25 06:03:04;;;;;;;;;;;;;;;;;;4386098;32;20248;-96
2021/05/25 06:05:40;;;;;;;;;;;;;;;;;;4387920;32;20561;-96
2021/05/25 06:08:17;;;;;;;;;;;;;;;;;;4392336;32;19962;-96
2021/05/25 06:10:51;;;;;;;;;;;;;;;;;;4390083;32;19997;-94
2021/05/25 06:13:25;;;;;;;;;;;;;;;;;;4398135;32;19962;-94
2021/05/25 06:16:02;;;;;;;;;;;;;;;;;;4394539;32;19954;-94
2021/05/25 06:18:33;;;;;;;;;;;;;;;;;;4399347;32;20019;-96
2021/05/25 06:21:04;;;;;;;;;;;;;;;;;;4401541;32;20022;-94
2021/05/25 06:23:35;;;;;;;;;;;;;;;;;;4386050;32;19957;-94
2021/05/25 06:26:06;;;;;;;;;;;;;;;;;;4401760;32;19977;-94
2021/05/25 06:28:43;;;;;;;;;;;;;;;;;;4392800;32;20024;-95
2021/05/25 06:31:11;;;;;;;;;;;;;;;;;;4385462;32;19997;-95
2021/05/25 06:33:40;;;;;;;;;;;;;;;;;;4396632;32;20373;-96
2021/05/25 06:36:19;;;;;;;;;;;;;;;;;;4403031;32;19995;-94
2021/05/25 06:38:49;;;;;;;;;;;;;;;;;;4410118;32;20002;-95
2021/05/25 06:41:30;;;;;;;;;;;;;;;;;;4396772;32;19997;-95
2021/05/25 06:44:09;;;;;;;;;;;;;;;;;;4392918;32;19995;-95
2021/05/25 06:46:42;;;;;;;;;;;;;;;;;;4403301;32;19958;-94
2021/05/25 06:49:19;;;;;;;;;;;;;;;;;;4400590;32;19974;-94
2021/05/25 06:51:50;;;;;;;;;;;;;;;;;;4387031;32;19988;-91
2021/05/25 06:54:20;;;;;;;;;;;;;;;;;;4391404;32;20331;-92
2021/05/25 06:56:48;;;;;;;;;;;;;;;;;;4398150;32;20012;-92
2021/05/25 06:59:23;;;;;;;;;;;;;;;;;;4399659;32;19954;-94
2021/05/25 07:01:54;;;;;;;;;;;;;;;;;;4389124;32;19953;-91
2021/05/25 07:04:22;;;;;;;;;;;;;;;;;;4402643;32;20499;-93
2021/05/25 07:06:51;;;;;;;;;;;;;;;;;;4403232;32;20478;-93
2021/05/25 07:09:21;;;;;;;;;;;;;;;;;;4401658;32;20024;-93
2021/05/25 07:11:52;;;;;;;;;;;;;;;;;;4410347;32;19987;-93
2021/05/25 07:14:23;;;;;;;;;;;;;;;;;;4409971;32;19977;-92
2021/05/25 07:16:52;;;;;;;;;;;;;;;;;;4404364;32;19983;-93
2021/05/25 07:19:20;;;;;;;;;;;;;;;;;;4388621;32;20336;-92
2021/05/25 07:21:56;;;;;;;;;;;;;;;;;;4399545;32;19962;-92
2021/05/25 07:24:30;;;;;;;;;;;;;;;;;;4397335;32;19997;-93
2021/05/25 07:27:04;;;;;;;;;;;;;;;;;;4390876;32;19978;-91
2021/05/25 07:29:35;;;;;;;;;;;;;;;;;;4387393;32;19961;-93
2021/05/25 07:32:05;;;;;;;;;;;;;;;;;;4401560;32;19938;-93
2021/05/25 07:34:37;;;;;;;;;;;;;;;;;;4390671;32;19984;-93
2021/05/25 07:37:10;;;;;;;;;;;;;;;;;;4388359;32;19994;-91
2021/05/25 07:39:43;;;;;;;;;;;;;;;;;;4404626;32;20001;-92
2021/05/25 07:42:16;;;;;;;;;;;;;;;;;;4389147;32;19989;-94
2021/05/25 07:44:48;;;;;;;;;;;;;;;;;;4406309;32;19961;-95
2021/05/25 07:47:23;;;;;;;;;;;;;;;;;;4405985;32;19997;-96
2021/05/25 07:50:14;;;;;;;;;;;;;;;;;;4403464;32;19978;-96
2021/05/25 07:52:46;;;;;;;;;;;;;;;;;;4410103;32;20044;-96
2021/05/25 07:55:30;;;;;;;;;;;;;;;;;;4402728;32;19977;-92
2021/05/25 07:58:06;;;;;;;;;;;;;;;;;;4386727;32;19989;-91
2021/05/25 08:00:48;;;;;;;;;;;;;;;;;;4395624;32;20019;-92
2021/05/25 08:03:21;;;;;;;;;;;;;;;;;;4384576;32;20004;-92
2021/05/25 08:05:53;;;;;;;;;;;;;;;;;;4391780;32;20057;-94
2021/05/25 08:08:24;;;;;;;;;;;;;;;;;;4393206;32;20004;-93
2021/05/25 08:10:59;;;;;;;;;;;;;;;;;;4394852;32;19991;-93
2021/05/25 08:13:35;;;;;;;;;;;;;;;;;;4387556;32;21308;-92
2021/05/25 08:16:05;;;;;;;;;;;;;;;;;;4397575;32;20002;-92
2021/05/25 08:18:52;;;;;;;;;;;;;;;;;;4392330;32;19966;-91
2021/05/25 08:21:23;;;;;;;;;;;;;;;;;;4401686;32;20320;-94
2021/05/25 08:23:54;;;;;;;;;;;;;;;;;;4385270;32;20003;-94
2021/05/25 08:26:45;;;;;;;;;;;;;;;;;;4395621;32;20021;-94
2021/05/25 08:29:19;;;;;;;;;;;;;;;;;;4389131;32;20038;-93
2021/05/25 08:31:50;;;;;;;;;;;;;;;;;;4403204;32;19961;-93
2021/05/25 08:34:24;;;;;;;;;;;;;;;;;;4380488;32;20009;-93
2021/05/25 08:36:56;;;;;;;;;;;;;;;;;;4407988;32;19958;-93
2021/05/25 08:39:32;;;;;;;;;;;;;;;;;;4391899;32;19968;-94
2021/05/25 08:42:05;;;;;;;;;;;;;;;;;;4386556;32;20023;-93
2021/05/25 08:44:39;;;;;;;;;;;;;;;;;;4389990;32;20028;-93
2021/05/25 08:47:12;;;;;;;;;;;;;;;;;;4396900;32;20020;-93
2021/05/25 08:49:43;;;;;;;;;;;;;;;;;;4392456;32;19961;-94
2021/05/25 08:52:36;;;;;;;;;;;;;;;;;;4389018;32;19959;-93
2021/05/25 08:55:11;;;;;;;;;;;;;;;;;;4390446;32;20031;-93
2021/05/25 08:57:41;;;;;;;;;;;;;;;;;;4401998;32;19942;-93
2021/05/25 09:00:16;;;;;;;;;;;;;;;;;;4388212;32;19952;-93
2021/05/25 09:03:03;;;;;;;;;;;;;;;;;;4393437;32;19961;-93
2021/05/25 09:05:41;;;;;;;;;;;;;;;;;;4391856;32;20081;-95
2021/05/25 09:08:12;;;;;;;;;;;;;;;;;;4394410;32;20451;-94
2021/05/25 09:10:44;;;;;;;;;;;;;;;;;;4390031;32;20383;-95
2021/05/25 09:13:16;;;;;;;;;;;;;;;;;;4397989;32;19954;-93
2021/05/25 09:15:46;;;;;;;;;;;;;;;;;;4387494;32;20389;-94
2021/05/25 09:18:18;;;;;;;;;;;;;;;;;;4389801;32;19968;-94
2021/05/25 09:21:20;;;;;;;;;;;;;;;;;;4391093;32;20001;-95
2021/05/25 09:23:58;;;;;;;;;;;;;;;;;;4400628;32;20662;-96
2021/05/25 09:26:42;;;;;;;;;;;;;;;;;;4392629;32;20101;-94
2021/05/25 09:29:15;;;;;;;;;;;;;;;;;;4395251;32;19997;-94
2021/05/25 09:31:51;;;;;;;;;;;;;;;;;;4406078;32;19958;-93
2021/05/25 09:34:23;;;;;;;;;;;;;;;;;;4388631;32;19968;-96
2021/05/25 09:37:03;;;;;;;;;;;;;;;;;;4400707;32;20023;-93
2021/05/25 09:39:44;;;;;;;;;;;;;;;;;;4413902;32;20361;-93
2021/05/25 09:42:18;;;;;;;;;;;;;;;;;;4391170;32;19954;-93
2021/05/25 09:44:46;;;;;;;;;;;;;;;;;;4400896;32;19946;-92
2021/05/25 09:47:24;;;;;;;;;;;;;;;;;;4404266;32;20289;-94
2021/05/25 09:50:00;;;;;;;;;;;;;;;;;;4396747;32;19996;-93
2021/05/25 09:52:45;;;;;;;;;;;;;;;;;;4387875;32;19986;-96
2021/05/25 09:55:25;;;;;;;;;;;;;;;;;;4400289;32;19992;-93
2021/05/25 09:57:57;;;;;;;;;;;;;;;;;;4388729;32;19990;-92
2021/05/25 10:00:35;;;;;;;;;;;;;;;;;;4404560;32;20507;-94
2021/05/25 10:03:12;;;;;;;;;;;;;;;;;;4390906;32;20006;-94
2021/05/25 10:05:44;;;;;;;;;;;;;;;;;;4393049;32;19981;-94
2021/05/25 10:08:20;;;;;;;;;;;;;;;;;;4391201;32;19986;-95
2021/05/25 10:10:51;;;;;;;;;;;;;;;;;;4391879;32;19964;-94
2021/05/25 10:13:26;;;;;;;;;;;;;;;;;;4392218;32;19962;-94
2021/05/25 10:16:15;;;;;;;;;;;;;;;;;;4389018;32;19998;-94
2021/05/25 10:19:02;;;;;;;;;;;;;;;;;;4392962;32;20346;-95
2021/05/25 10:21:47;;;;;;;;;;;;;;;;;;4405513;32;19966;-94
2021/05/25 10:24:19;;;;;;;;;;;;;;;;;;4379693;32;19986;-95
2021/05/25 10:26:59;;;;;;;;;;;;;;;;;;4407433;32;19987;-94
2021/05/25 10:29:41;;;;;;;;;;;;;;;;;;4393062;32;19954;-92
2021/05/25 10:32:11;;;;;;;;;;;;;;;;;;4405921;32;20382;-95
2021/05/25 10:35:03;;;;;;;;;;;;;;;;;;4403291;32;19997;-93
2021/05/25 10:37:46;;;;;;;;;;;;;;;;;;4406765;32;19995;-94
2021/05/25 10:40:37;;;;;;;;;;;;;;;;;;4388244;32;20336;-95
2021/05/25 10:43:38;;;;;;;;;;;;;;;;;;4387949;32;20305;-93
2021/05/25 10:46:22;;;;;;;;;;;;;;;;;;4404953;32;20021;-93
2021/05/25 10:51:41;;;;;;;;;;;;;;;;;;4398594;32;19977;-95
2021/05/25 10:54:22;;;;;;;;;;;;;;;;;;4399657;32;20529;-94
2021/05/25 10:57:04;;;;;;;;;;;;;;;;;;4413144;32;19988;-94
2021/05/25 10:59:41;;;;;;;;;;;;;;;;;;4405387;32;19962;-94
2021/05/25 11:02:19;;;;;;;;;;;;;;;;;;4393061;32;19962;-95
2021/05/25 11:05:37;;;;;;;;;;;;;;;;;;4399190;32;19974;-94
2021/05/25 11:08:28;;;;;;;;;;;;;;;;;;4384948;32;19969;-94
2021/05/25 11:11:05;;;;;;;;;;;;;;;;;;4390124;32;19999;-95
2021/05/25 11:13:37;;;;;;;;;;;;;;;;;;4416788;32;19968;-93
2021/05/25 11:16:16;;;;;;;;;;;;;;;;;;4393781;32;19950;-94
2021/05/25 11:19:21;;;;;;;;;;;;;;;;;;4397694;32;20024;-94
2021/05/25 11:24:41;;;;;;;;;;;;;;;;;;4405916;32;20347;-94
2021/05/25 11:27:31;;;;;;;;;;;;;;;;;;4388414;32;19962;-94
2021/05/25 11:30:14;;;;;;;;;;;;;;;;;;4392124;32;19982;-94
2021/05/25 11:32:56;;;;;;;;;;;;;;;;;;4400393;32;19957;-95
2021/05/25 11:35:33;;;;;;;;;;;;;;;;;;4390910;32;19965;-95
2021/05/25 11:38:08;;;;;;;;;;;;;;;;;;4409381;32;19958;-95
2021/05/25 11:40:57;;;;;;;;;;;;;;;;;;4390107;32;20008;-96
2021/05/25 11:43:30;;;;;;;;;;;;;;;;;;4399628;32;20000;-94
2021/05/25 11:46:07;;;;;;;;;;;;;;;;;;4392452;32;19964;-95
2021/05/25 11:49:16;;;;;;;;;;;;;;;;;;4394867;32;19942;-95
2021/05/25 11:51:58;;;;;;;;;;;;;;;;;;4403469;32;19955;-93
2021/05/25 11:54:51;;;;;;;;;;;;;;;;;;4391144;32;19938;-93
2021/05/25 11:57:31;;;;;;;;;;;;;;;;;;4395150;32;19954;-94
2021/05/25 12:00:00;;;;;;;;;;;;;;;;;;4390379;32;19953;-94
2021/05/25 12:02:34;;;;;;;;;;;;;;;;;;4401259;32;20319;-94
2021/05/25 12:05:08;;;;;;;;;;;;;;;;;;4402612;32;19968;-94
2021/05/25 12:07:45;;;;;;;;;;;;;;;;;;4393345;32;19969;-95
2021/05/25 12:10:18;;;;;;;;;;;;;;;;;;4391419;32;19986;-95
2021/05/25 12:12:47;;;;;;;;;;;;;;;;;;4385925;32;19957;-94
2021/05/25 12:15:28;;;;;;;;;;;;;;;;;;4393000;32;20007;-94
2021/05/25 12:17:56;;;;;;;;;;;;;;;;;;4394542;32;19947;-94
2021/05/25 12:20:32;;;;;;;;;;;;;;;;;;4405539;32;19962;-94
2021/05/25 12:23:06;;;;;;;;;;;;;;;;;;4391209;32;19965;-94
2021/05/25 12:25:51;;;;;;;;;;;;;;;;;;4404637;32;20016;-95
2021/05/25 12:28:28;;;;;;;;;;;;;;;;;;4393568;32;19976;-95
2021/05/25 12:31:07;;;;;;;;;;;;;;;;;;4393675;32;20009;-94
2021/05/25 12:33:51;;;;;;;;;;;;;;;;;;4395248;32;19990;-94
2021/05/25 12:36:30;;;;;;;;;;;;;;;;;;4394644;32;20043;-95
2021/05/25 12:39:02;;;;;;;;;;;;;;;;;;4401224;32;19966;-94
2021/05/25 12:41:42;;;;;;;;;;;;;;;;;;4394300;32;19993;-95
2021/05/25 12:44:15;;;;;;;;;;;;;;;;;;4378717;32;19969;-93
2021/05/25 12:46:50;;;;;;;;;;;;;;;;;;4408126;32;19958;-96
2021/05/25 12:49:19;;;;;;;;;;;;;;;;;;4402152;32;20033;-94
2021/05/25 12:51:48;;;;;;;;;;;;;;;;;;4391592;32;19966;-94
2021/05/25 12:54:33;;;;;;;;;;;;;;;;;;4399209;32;20350;-94
2021/05/25 13:00:00;;;;;;;;;;;;;;;;;;4409931;32;19950;-96
2021/05/25 13:02:32;;;;;;;;;;;;;;;;;;4396151;32;19973;-95
2021/05/25 13:05:19;;;;;;;;;;;;;;;;;;4393685;32;19942;-95
2021/05/25 13:07:55;;;;;;;;;;;;;;;;;;4407598;32;19962;-95
2021/05/25 13:10:41;;;;;;;;;;;;;;;;;;4392716;32;20329;-95
2021/05/25 13:13:29;;;;;;;;;;;;;;;;;;4393101;32;19965;-95
2021/05/25 13:16:00;;;;;;;;;;;;;;;;;;4401457;32;19997;-94
2021/05/25 13:18:37;;;;;;;;;;;;;;;;;;4391121;32;19996;-96
2021/05/25 13:21:10;;;;;;;;;;;;;;;;;;4396491;32;19946;-95
2021/05/25 13:23:49;;;;;;;;;;;;;;;;;;4393187;32;19962;-94
2021/05/25 13:26:24;;;;;;;;;;;;;;;;;;4417252;32;19950;-93
2021/05/25 13:28:57;;;;;;;;;;;;;;;;;;4400513;32;20281;-93
2021/05/25 13:31:39;;;;;;;;;;;;;;;;;;4399134;32;20260;-95
2021/05/25 13:34:35;;;;;;;;;;;;;;;;;;4393784;32;19987;-93
2021/05/25 13:37:07;;;;;;;;;;;;;;;;;;4393022;32;19972;-94
2021/05/25 13:39:56;;;;;;;;;;;;;;;;;;4393643;32;19950;-94
2021/05/25 13:42:49;;;;;;;;;;;;;;;;;;4404813;32;19954;-96
2021/05/25 13:45:25;;;;;;;;;;;;;;;;;;4394828;32;19950;-95
2021/05/25 13:48:04;;;;;;;;;;;;;;;;;;4396769;32;19963;-95
2021/05/25 13:50:46;;;;;;;;;;;;;;;;;;4404016;32;19957;-96
2021/05/25 13:53:25;;;;;;;;;;;;;;;;;;4394944;32;19972;-96
2021/05/25 13:56:09;;;;;;;;;;;;;;;;;;4405479;32;19949;-95
2021/05/25 13:58:53;;;;;;;;;;;;;;;;;;4394563;32;19954;-95
2021/05/25 14:01:30;;;;;;;;;;;;;;;;;;4404926;32;19953;-94
2021/05/25 14:04:37;;;;;;;;;;;;;;;;;;4399437;32;20705;-96
2021/05/25 14:07:16;;;;;;;;;;;;;;;;;;4413585;32;19958;-96
2021/05/25 14:09:58;;;;;;;;;;;;;;;;;;4394872;32;19958;-95
2021/05/25 14:12:39;;;;;;;;;;;;;;;;;;4406526;32;19998;-95
2021/05/25 14:15:22;;;;;;;;;;;;;;;;;;4399075;32;19994;-93
2021/05/25 14:18:06;;;;;;;;;;;;;;;;;;4405421;32;20013;-95
2021/05/25 14:21:02;;;;;;;;;;;;;;;;;;;;;
2021/05/25 14:23:45;;;;;;;;;;;;;;;;;;4401188;32;19958;-95
2021/05/25 14:26:14;;;;;;;;;;;;;;;;;;4408281;32;19946;-95
2021/05/25 14:29:12;;;;;;;;;;;;;;;;;;4393327;32;20251;-94
2021/05/25 14:31:49;;;;;;;;;;;;;;;;;;4395556;32;19972;-95
2021/05/25 14:34:31;;;;;;;;;;;;;;;;;;4393965;32;20292;-96
2021/05/25 14:37:22;;;;;;;;;;;;;;;;;;4396209;32;19975;-96
2021/05/25 14:39:58;;;;;;;;;;;;;;;;;;4393311;32;20400;-95
2021/05/25 14:42:34;;;;;;;;;;;;;;;;;;4406818;32;20442;-95
2021/05/25 14:45:15;;;;;;;;;;;;;;;;;;4391825;32;20021;-95
2021/05/25 14:47:44;;;;;;;;;;;;;;;;;;4393010;32;19946;-96
2021/05/25 14:50:28;;;;;;;;;;;;;;;;;;4394577;32;20539;-95
2021/05/25 14:53:31;;;;;;;;;;;;;;;;;;4396508;32;20006;-96
2021/05/25 14:56:36;;;;;;;;;;;;;;;;;;4397536;32;20009;-95
2021/05/25 14:59:57;;;;;;;;;;;;;;;;;;4409671;32;20026;-96
2021/05/25 15:02:55;;;;;;;;;;;;;;;;;;4396502;32;19962;-96
2021/05/25 15:05:29;;;;;;;;;;;;;;;;;;4406540;32;20004;-96
2021/05/25 15:08:02;;;;;;;;;;;;;;;;;;4406103;32;19955;-94
2021/05/25 15:10:35;;;;;;;;;;;;;;;;;;4406872;32;19950;-93
2021/05/25 15:13:13;;;;;;;;;;;;;;;;;;4402091;32;20029;-94
2021/05/25 15:15:54;;;;;;;;;;;;;;;;;;4397624;32;19953;-96
2021/05/25 15:18:26;;;;;;;;;;;;;;;;;;4393493;32;19953;-96
2021/05/25 15:20:58;;;;;;;;;;;;;;;;;;4396615;32;19985;-96
2021/05/25 15:23:35;;;;;;;;;;;;;;;;;;4405348;32;19984;-96
2021/05/25 15:26:24;;;;;;;;;;;;;;;;;;4389524;32;19950;-95
2021/05/25 15:29:03;;;;;;;;;;;;;;;;;;4391198;32;19954;-94
2021/05/25 15:31:42;;;;;;;;;;;;;;;;;;4403943;32;19960;-94
2021/05/25 15:34:18;;;;;;;;;;;;;;;;;;4388701;32;19969;-96
2021/05/25 15:37:15;;;;;;;;;;;;;;;;;;4396033;32;19983;-96
2021/05/25 15:39:47;;;;;;;;;;;;;;;;;;4387190;32;19973;-94
2021/05/25 15:42:22;;;;;;;;;;;;;;;;;;4402098;32;19962;-94
2021/05/25 15:45:09;;;;;;;;;;;;;;;;;;4402130;32;19954;-96
2021/05/25 15:47:47;;;;;;;;;;;;;;;;;;4394720;32;20498;-95
2021/05/25 15:50:44;;;;;;;;;;;;;;;;;;4395178;32;19950;-94
2021/05/25 15:53:22;;;;;;;;;;;;;;;;;;4389479;32;19964;-96
2021/05/25 15:56:14;;;;;;;;;;;;;;;;;;4395394;32;19997;-96
2021/05/25 15:58:50;;;;;;;;;;;;;;;;;;4398452;32;20026;-95
2021/05/25 16:01:41;;;;;;;;;;;;;;;;;;;;;
2021/05/25 16:04:26;;;;;;;;;;;;;;;;;;4405214;32;19958;-95
2021/05/25 16:07:31;;;;;;;;;;;;;;;;;;4392904;32;19969;-95
2021/05/25 16:10:09;;;;;;;;;;;;;;;;;;4403634;32;19980;-96
2021/05/25 16:12:46;;;;;;;;;;;;;;;;;;4390195;32;20013;-96
2021/05/25 16:15:19;;;;;;;;;;;;;;;;;;4390001;32;19960;-94
2021/05/25 16:17:52;;;;;;;;;;;;;;;;;;4404752;32;20012;-96
2021/05/25 16:20:26;;;;;;;;;;;;;;;;;;4393354;32;19998;-94
2021/05/25 16:23:04;;;;;;;;;;;;;;;;;;4391703;32;20660;-95
2021/05/25 16:25:53;;;;;;;;;;;;;;;;;;4405537;32;20656;-96
2021/05/25 16:28:25;;;;;;;;;;;;;;;;;;4386884;32;19954;-95
2021/05/25 16:31:06;;;;;;;;;;;;;;;;;;4402799;32;19993;-96
2021/05/25 16:33:36;;;;;;;;;;;;;;;;;;4394100;32;20054;-96
2021/05/25 16:36:09;;;;;;;;;;;;;;;;;;4402053;32;19954;-95
2021/05/25 16:38:37;;;;;;;;;;;;;;;;;;4391391;32;19977;-93
2021/05/25 16:41:09;;;;;;;;;;;;;;;;;;4402421;32;19959;-96
2021/05/25 16:43:46;;;;;;;;;;;;;;;;;;4399638;32;20349;-96
2021/05/25 16:46:37;;;;;;;;;;;;;;;;;;4394592;32;20305;-95
2021/05/25 16:49:40;;;;;;;;;;;;;;;;;;4417029;32;19965;-95
2021/05/25 16:52:46;;;;;;;;;;;;;;;;;;4397862;32;19961;-96
2021/05/25 16:55:26;;;;;;;;;;;;;;;;;;4397449;32;20016;-95
2021/05/25 16:58:22;;;;;;;;;;;;;;;;;;4401532;32;19961;-96
2021/05/25 17:17:56;;;;;;;;;;;;;;;;;;4405540;32;20572;-95
2021/05/25 17:20:24;;;;;;;;;;;;;;;;;;4402689;32;20325;-94
2021/05/25 17:22:56;;;;;;;;;;;;;;;;;;4405829;32;19994;-95
2021/05/25 17:27:59;;;;;;;;;;;;;;;;;;4399252;32;20024;-94
2021/05/25 17:30:29;;;;;;;;;;;;;;;;;;4404709;32;20004;-95
2021/05/25 17:33:00;;;;;;;;;;;;;;;;;;4393887;32;20042;-94
2021/05/25 17:35:32;;;;;;;;;;;;;;;;;;4391487;32;20003;-93
2021/05/25 17:38:03;;;;;;;;;;;;;;;;;;4389153;32;20037;-95
2021/05/25 17:40:36;;;;;;;;;;;;;;;;;;4399882;32;20346;-96
2021/05/25 17:43:26;;;;;;;;;;;;;;;;;;4401821;32;20040;-94
2021/05/25 17:45:58;;;;;;;;;;;;;;;;;;4387512;32;20754;-95
2021/05/25 17:48:31;;;;;;;;;;;;;;;;;;4391843;32;19972;-93
2021/05/25 17:51:06;;;;;;;;;;;;;;;;;;4410035;32;20009;-95
2021/05/25 17:53:36;;;;;;;;;;;;;;;;;;4412746;32;19965;-95
2021/05/25 17:56:11;;;;;;;;;;;;;;;;;;4390162;32;19963;-95
2021/05/25 17:58:42;;;;;;;;;;;;;;;;;;4387406;32;19993;-95
2021/05/25 18:01:14;;;;;;;;;;;;;;;;;;4401830;32;19982;-94
2021/05/25 18:03:43;;;;;;;;;;;;;;;;;;4404305;32;20512;-96
2021/05/25 18:06:14;;;;;;;;;;;;;;;;;;4391180;32;20009;-96
2021/05/25 18:08:48;;;;;;;;;;;;;;;;;;4398494;32;20040;-95
2021/05/25 18:11:21;;;;;;;;;;;;;;;;;;4389321;32;19971;-95
2021/05/25 18:13:54;;;;;;;;;;;;;;;;;;4407720;32;19956;-96
2021/05/25 18:16:23;;;;;;;;;;;;;;;;;;4396302;32;20278;-96
2021/05/25 18:18:54;;;;;;;;;;;;;;;;;;4394630;32;19989;-95
2021/05/25 18:21:25;;;;;;;;;;;;;;;;;;4412971;32;20001;-96
2021/05/25 18:23:59;;;;;;;;;;;;;;;;;;4415956;32;19965;-95